If you wish to contribute or participate in the discussions about articles you are invited to join SKYbrary as a registered user

 Actions

Villacoublay-Vélizy (BA 107) Air Base

From SKYbrary Wiki

LFPV
Airport
ICAO: LFPV
Summary
Name Villacoublay-Vélizy (BA 107) Air Base
Region Europe
Territory France FR.gif
Location , Ile-de-France
Serving Villacoublay
Elevation 178.003 m
584 ft
584 ft178.003 m
Type medium airport
Coordinates 48° 46' 27.86" N, 2° 12' 5.53" E
Runways
Designator Length Width Surface ROPS
9/27 1813 m5,948.163 ft
45 m147.638 ft
ASP /


METAR
Observation LFPV 222030Z AUTO 07003KT CAVOK 20/09 Q1025 NOSIG
Station Villacoublay
Date/Time 22 August 2019 20:30:00
Wind direction 70°
Wind speed 03 kts
Lowest cloud amount clouds and visibility OK
Temperature 20°C
Dew point 9°C
Humidity 49%
QNH 1025 hPa
Weather condition n/a